createdAt,value
2023-04-15T00:02:23.602Z,95110.66
2023-04-15T00:05:11.082Z,95107.03
2023-04-15T00:07:58.372Z,95098.13
2023-04-15T00:10:45.706Z,95103.91
2023-04-15T00:13:33.002Z,95102.31
2023-04-15T00:16:20.576Z,95100.75
2023-04-15T00:19:07.913Z,95097.59
2023-04-15T00:21:55.241Z,95099.69
2023-04-15T00:24:42.544Z,95095.75
2023-04-15T00:27:29.910Z,95091.84
2023-04-15T00:30:17.225Z,95087.63
2023-04-15T00:33:04.577Z,95087.88
2023-04-15T00:35:51.876Z,95085.78
2023-04-15T00:38:39.238Z,95082.88
2023-04-15T00:41:26.536Z,95068.50
2023-04-15T00:44:13.879Z,95063.28
2023-04-15T00:47:01.185Z,95059.88
2023-04-15T00:49:48.537Z,95057.00
2023-04-15T00:52:35.875Z,95052.56
2023-04-15T00:55:23.206Z,95050.97
2023-04-15T00:58:10.509Z,95049.44
2023-04-15T01:00:57.850Z,95055.19
2023-04-15T01:03:45.376Z,95061.72
2023-04-15T01:06:32.900Z,95058.06
2023-04-15T01:09:20.281Z,95058.84
2023-04-15T01:12:07.973Z,95058.84
2023-04-15T01:14:55.325Z,95063.81
2023-04-15T01:17:43.095Z,95063.03
2023-04-15T01:20:30.440Z,95061.47
2023-04-15T01:23:17.779Z,95066.16
2023-04-15T01:26:05.194Z,95059.34
2023-04-15T01:28:52.590Z,95060.13
2023-04-15T01:31:39.969Z,95060.13
2023-04-15T01:34:27.359Z,95063.28
2023-04-15T01:37:14.733Z,95048.41
2023-04-15T01:40:02.132Z,95050.22
2023-04-15T01:42:49.505Z,95058.59
2023-04-15T01:45:36.876Z,95069.84
2023-04-15T01:48:24.230Z,95068.00
2023-04-15T01:51:11.612Z,95063.56
2023-04-15T01:53:58.960Z,95066.19
2023-04-15T01:56:46.311Z,95056.78
2023-04-15T01:59:33.661Z,95063.81
2023-04-15T02:02:21.059Z,95052.03
2023-04-15T02:05:08.456Z,95049.69
2023-04-15T02:07:55.806Z,95043.91
2023-04-15T02:10:43.190Z,95044.97
2023-04-15T02:13:30.529Z,95051.47
2023-04-15T02:16:17.850Z,95050.16
2023-04-15T02:19:05.671Z,95045.19
2023-04-15T02:21:52.982Z,95044.41
2023-04-15T02:24:40.410Z,95042.03
2023-04-15T02:27:27.686Z,95045.72
2023-04-15T02:30:15.017Z,95044.94
2023-04-15T02:33:02.429Z,95044.13
2023-04-15T02:35:49.911Z,95053.28
2023-04-15T02:38:37.196Z,95054.88
2023-04-15T02:41:24.499Z,95049.63
2023-04-15T02:44:11.766Z,95043.34
2023-04-15T02:46:59.104Z,95045.72
2023-04-15T02:49:46.438Z,95047.28
2023-04-15T02:52:33.863Z,95047.28
2023-04-15T02:55:21.159Z,95050.41
2023-04-15T02:58:08.481Z,95044.16
2023-04-15T03:00:55.887Z,95037.09
2023-04-15T03:03:43.383Z,95042.84
2023-04-15T03:06:30.858Z,95048.34
2023-04-15T03:09:18.198Z,95040.78
2023-04-15T03:12:05.674Z,95039.72
2023-04-15T03:14:53.034Z,95045.47
2023-04-15T03:17:40.407Z,95043.13
2023-04-15T03:20:28.288Z,95038.69
2023-04-15T03:23:15.652Z,95042.66
2023-04-15T03:26:03.159Z,95041.34
2023-04-15T03:28:50.480Z,95049.97
2023-04-15T03:31:37.837Z,95044.72
2023-04-15T03:34:25.189Z,95039.50
2023-04-15T03:37:12.532Z,95040.56
2023-04-15T03:39:59.854Z,95053.88
2023-04-15T03:42:47.245Z,95041.31
2023-04-15T03:45:34.559Z,95044.19
2023-04-15T03:48:21.992Z,95043.38
2023-04-15T03:51:09.338Z,95040.25
2023-04-15T03:53:56.672Z,95035.78
2023-04-15T03:56:43.953Z,95036.28
2023-04-15T03:59:31.298Z,95034.69
2023-04-15T04:02:18.801Z,95033.13
2023-04-15T04:05:06.226Z,95038.34
2023-04-15T04:07:53.545Z,95040.16
2023-04-15T04:10:40.878Z,95037.78
2023-04-15T04:13:28.198Z,95044.06
2023-04-15T04:16:15.758Z,95040.94
2023-04-15T04:19:03.297Z,95049.81
2023-04-15T04:21:51.134Z,95052.66
2023-04-15T04:24:38.458Z,95050.03
2023-04-15T04:27:25.829Z,95053.47
2023-04-15T04:30:13.118Z,95053.47
2023-04-15T04:33:00.565Z,95054.50
2023-04-15T04:35:47.944Z,95060.22
2023-04-15T04:38:35.293Z,95062.81
2023-04-15T04:41:22.593Z,95059.44
2023-04-15T04:44:10.168Z,95070.66
2023-04-15T04:46:57.526Z,95065.72
2023-04-15T04:49:44.885Z,95069.88
2023-04-15T04:52:32.213Z,95072.75
2023-04-15T04:55:19.608Z,95060.72
2023-04-15T04:58:06.937Z,95073.81
2023-04-15T05:00:54.314Z,95069.34
2023-04-15T05:03:41.773Z,95065.72
2023-04-15T05:06:29.230Z,95072.50
2023-04-15T05:09:16.600Z,95073.28
2023-04-15T05:12:03.959Z,95073.28
2023-04-15T05:14:51.286Z,95080.09
2023-04-15T05:17:38.709Z,95076.44
2023-04-15T05:20:26.108Z,95078.00
2023-04-15T05:23:13.451Z,95075.94
2023-04-15T05:26:00.781Z,95084.00
2023-04-15T05:28:48.172Z,95085.06
2023-04-15T05:31:35.585Z,95087.16
2023-04-15T05:34:23.018Z,95090.78
2023-04-15T05:37:10.341Z,95081.41
2023-04-15T05:39:57.704Z,95087.88
2023-04-15T05:42:45.063Z,95088.91
2023-04-15T05:45:32.411Z,95088.88
2023-04-15T05:48:19.747Z,95073.69
2023-04-15T05:51:07.123Z,95086.16
2023-04-15T05:53:57.200Z,95086.66
2023-04-15T05:56:44.531Z,95078.53
2023-04-15T05:59:31.854Z,95090.00
2023-04-15T06:02:19.296Z,95078.25
2023-04-15T06:05:11.007Z,95099.16
2023-04-15T06:07:58.439Z,95088.69
2023-04-15T06:10:47.790Z,95099.69
2023-04-15T06:13:35.154Z,95093.69
2023-04-15T06:16:22.474Z,95093.91
2023-04-15T06:19:09.885Z,95093.63
2023-04-15T06:21:57.231Z,95093.34
2023-04-15T06:24:44.518Z,95090.66
2023-04-15T06:27:31.819Z,95086.19
2023-04-15T06:30:19.138Z,95090.84
2023-04-15T06:33:06.467Z,95078.81
2023-04-15T06:35:53.792Z,95082.72
2023-04-15T06:38:41.155Z,95102.28
2023-04-15T06:41:28.519Z,95093.66
2023-04-15T06:44:15.886Z,95096.25
2023-04-15T06:47:03.305Z,95091.03
2023-04-15T06:49:52.472Z,95090.50
2023-04-15T06:52:39.805Z,95087.34
2023-04-15T06:55:27.144Z,95084.47
2023-04-15T06:58:14.456Z,95090.41
2023-04-15T07:01:01.880Z,95081.28
2023-04-15T07:03:49.261Z,95093.53
2023-04-15T07:06:36.666Z,95085.94
2023-04-15T07:09:24.001Z,95099.22
2023-04-15T07:12:11.406Z,95102.63
2023-04-15T07:14:58.824Z,95094.84
2023-04-15T07:17:46.284Z,95090.19
2023-04-15T07:20:33.636Z,95087.31
2023-04-15T07:23:20.991Z,95085.50
2023-04-15T07:26:08.349Z,95090.47
2023-04-15T07:28:55.965Z,95090.22
2023-04-15T07:31:43.319Z,95094.94
2023-04-15T07:34:32.549Z,95094.47
2023-04-15T07:37:20.017Z,95089.50
2023-04-15T07:40:07.581Z,95095.53
2023-04-15T07:42:54.933Z,95095.53
2023-04-15T07:45:42.315Z,95096.31
2023-04-15T07:48:29.618Z,95088.78
2023-04-15T07:51:17.033Z,95099.06
2023-04-15T07:54:06.884Z,95110.16
2023-04-15T07:56:54.273Z,95117.63
2023-04-15T07:59:41.583Z,95121.66
2023-04-15T08:02:29.064Z,95126.47
2023-04-15T08:05:16.554Z,95117.13
2023-04-15T08:08:05.273Z,95121.41
2023-04-15T08:10:52.903Z,95126.22
2023-04-15T08:13:40.334Z,95118.97
2023-04-15T08:16:27.767Z,95121.59
2023-04-15T08:19:15.192Z,95119.50
2023-04-15T08:22:02.509Z,95125.31
2023-04-15T08:24:49.834Z,95127.16
2023-04-15T08:27:37.194Z,95129.78
2023-04-15T08:30:24.580Z,95141.56
2023-04-15T08:33:11.907Z,95139.22
2023-04-15T08:35:59.228Z,95131.63
2023-04-15T08:38:46.547Z,95136.06
2023-04-15T08:41:33.897Z,95131.38
2023-04-15T08:44:21.268Z,95140.03
2023-04-15T08:47:09.044Z,95152.88
2023-04-15T08:49:56.451Z,95149.72
2023-04-15T08:52:43.818Z,95153.13
2023-04-15T08:55:31.152Z,95150.22
2023-04-15T08:58:18.544Z,95156.84
2023-04-15T09:01:05.933Z,95158.41
2023-04-15T09:03:53.446Z,95152.63
2023-04-15T09:06:40.842Z,95149.19
2023-04-15T09:09:28.168Z,95155.47
2023-04-15T09:12:15.634Z,95150.25
2023-04-15T09:15:02.953Z,95146.06
2023-04-15T09:17:50.292Z,95153.41
2023-04-15T09:20:37.743Z,95163.09
2023-04-15T09:23:25.089Z,95160.97
2023-04-15T09:26:12.451Z,95159.69
2023-04-15T09:28:59.809Z,95167.28
2023-04-15T09:31:47.148Z,95173.03
2023-04-15T09:34:34.459Z,95167.25
2023-04-15T09:37:32.010Z,95177.19
2023-04-15T09:40:20.034Z,95182.19
2023-04-15T09:43:07.391Z,95176.41
2023-04-15T09:45:54.800Z,95182.13
2023-04-15T09:48:42.186Z,95180.03
2023-04-15T09:51:29.477Z,95188.69
2023-04-15T09:54:16.811Z,95190.50
2023-04-15T09:57:04.120Z,95191.53
2023-04-15T09:59:51.443Z,95192.53
2023-04-15T10:02:38.898Z,95193.03
2023-04-15T10:05:26.334Z,95181.50
2023-04-15T10:08:13.652Z,95182.53
2023-04-15T10:11:01.064Z,95188.03
2023-04-15T10:13:48.381Z,95179.94
2023-04-15T10:16:35.723Z,95187.00
2023-04-15T10:19:23.025Z,95195.34
2023-04-15T10:22:10.356Z,95198.75
2023-04-15T10:24:57.683Z,95195.63
2023-04-15T10:27:45.061Z,95192.75
2023-04-15T10:30:32.434Z,95200.34
2023-04-15T10:33:19.781Z,95195.09
2023-04-15T10:36:07.132Z,95208.47
2023-04-15T10:38:54.472Z,95200.88
2023-04-15T10:41:41.780Z,95193.53
2023-04-15T10:44:29.563Z,95200.38
2023-04-15T10:47:16.866Z,95195.91
2023-04-15T10:50:04.247Z,95194.34
2023-04-15T10:52:51.526Z,95191.75
2023-04-15T10:55:38.854Z,95192.28
2023-04-15T10:58:26.209Z,95193.03
2023-04-15T11:01:13.608Z,95199.59
2023-04-15T11:04:01.064Z,95205.88
2023-04-15T11:06:48.516Z,95196.47
2023-04-15T11:09:35.807Z,95200.16
2023-04-15T11:12:23.091Z,95202.03
2023-04-15T11:15:10.398Z,95211.47
2023-04-15T11:17:57.824Z,95197.34
2023-04-15T11:20:45.311Z,95197.38
2023-04-15T11:23:32.805Z,95205.47
2023-04-15T11:26:20.153Z,95216.25
2023-04-15T11:29:07.487Z,95210.25
2023-04-15T11:31:54.833Z,95218.88
2023-04-15T11:34:42.298Z,95219.44
2023-04-15T11:37:29.612Z,95216.81
2023-04-15T11:40:16.921Z,95222.34
2023-04-15T11:43:04.257Z,95229.72
2023-04-15T11:45:52.179Z,95227.59
2023-04-15T11:48:39.497Z,95234.72
2023-04-15T11:51:26.857Z,95237.84
2023-04-15T11:54:14.213Z,95230.50
2023-04-15T11:57:01.565Z,95236.28
2023-04-15T11:59:48.868Z,95243.34
2023-04-15T12:02:36.259Z,95245.44
2023-04-15T12:05:23.712Z,95252.78
2023-04-15T12:08:11.102Z,95251.72
2023-04-15T12:10:58.415Z,95249.13
2023-04-15T12:13:45.734Z,95261.94
2023-04-15T12:16:34.154Z,95262.72
2023-04-15T12:19:23.179Z,95260.63
2023-04-15T12:22:10.499Z,95255.38
2023-04-15T12:24:57.851Z,95266.16
2023-04-15T12:27:45.218Z,95281.09
2023-04-15T12:30:32.536Z,95269.53
2023-04-15T12:33:19.870Z,95279.78
2023-04-15T12:36:07.229Z,95280.03
2023-04-15T12:38:54.566Z,95276.38
2023-04-15T12:41:41.889Z,95269.28
2023-04-15T12:44:29.277Z,95284.25
2023-04-15T12:47:16.715Z,95285.56
2023-04-15T12:50:04.434Z,95285.56
2023-04-15T12:52:51.766Z,95300.28
2023-04-15T12:55:39.144Z,95300.78
2023-04-15T12:58:26.482Z,95313.13
2023-04-15T13:01:13.919Z,95313.91
2023-04-15T13:04:01.337Z,95322.84
2023-04-15T13:06:48.753Z,95320.75
2023-04-15T13:09:36.104Z,95323.09
2023-04-15T13:12:23.463Z,95328.88
2023-04-15T13:15:10.778Z,95332.28
2023-04-15T13:17:58.227Z,95331.22
2023-04-15T13:20:45.528Z,95338.56
2023-04-15T13:23:32.857Z,95341.44
2023-04-15T13:26:20.173Z,95346.97
2023-04-15T13:29:07.540Z,95348.78
2023-04-15T13:31:54.853Z,95350.34
2023-04-15T13:34:42.196Z,95348.28
2023-04-15T13:37:29.519Z,95350.09
2023-04-15T13:40:16.849Z,95356.13
2023-04-15T13:43:04.169Z,95360.34
2023-04-15T13:45:51.542Z,95365.84
2023-04-15T13:48:38.911Z,95365.84
2023-04-15T13:51:26.292Z,95365.03
2023-04-15T13:54:13.678Z,95364.81
2023-04-15T13:57:01.008Z,95368.47
2023-04-15T13:59:48.333Z,95373.97
2023-04-15T14:02:35.758Z,95376.84
2023-04-15T14:05:23.192Z,95378.41
2023-04-15T14:08:10.518Z,95380.47
2023-04-15T14:10:57.912Z,95384.16
2023-04-15T14:13:45.294Z,95388.34
2023-04-15T14:16:32.625Z,95384.94
2023-04-15T14:19:19.984Z,95395.44
2023-04-15T14:22:07.297Z,95387.81
2023-04-15T14:24:54.640Z,95389.91
2023-04-15T14:27:41.966Z,95403.03
2023-04-15T14:30:29.392Z,95401.19
2023-04-15T14:33:16.732Z,95399.38
2023-04-15T14:36:04.086Z,95404.84
2023-04-15T14:38:51.548Z,95414.28
2023-04-15T14:41:38.888Z,95416.91
2023-04-15T14:44:26.195Z,95406.94
2023-04-15T14:47:13.539Z,95411.66
2023-04-15T14:50:00.864Z,95417.63
2023-04-15T14:52:48.172Z,95420.25
2023-04-15T14:55:35.532Z,95417.91
2023-04-15T14:58:22.831Z,95421.56
2023-04-15T15:01:10.221Z,95421.28
2023-04-15T15:03:57.643Z,95426.78
2023-04-15T15:06:45.821Z,95423.91
2023-04-15T15:09:35.143Z,95432.53
2023-04-15T15:12:22.513Z,95436.97
2023-04-15T15:15:24.996Z,95431.47
2023-04-15T15:18:16.048Z,95430.97
2023-04-15T15:21:03.356Z,95440.69
2023-04-15T15:23:50.682Z,95443.31
2023-04-15T15:26:38.087Z,95443.31
2023-04-15T15:29:25.408Z,95442.25
2023-04-15T15:32:12.882Z,95451.94
2023-04-15T15:35:00.233Z,95455.09
2023-04-15T15:37:47.614Z,95452.25
2023-04-15T15:40:35.002Z,95460.63
2023-04-15T15:43:22.337Z,95466.66
2023-04-15T15:46:09.705Z,95464.81
2023-04-15T15:48:57.013Z,95473.81
2023-04-15T15:51:44.347Z,95473.53
2023-04-15T15:54:31.666Z,95473.28
2023-04-15T15:57:18.948Z,95481.69
2023-04-15T16:03:06.953Z,95483.00
2023-04-15T16:05:55.130Z,95484.59
2023-04-15T16:08:42.462Z,95494.28
2023-04-15T16:11:30.157Z,95503.97
2023-04-15T16:14:17.516Z,95499.00
2023-04-15T16:17:04.857Z,95519.16
2023-04-15T16:19:57.681Z,95512.13
2023-04-15T16:22:48.128Z,95516.53
2023-04-15T16:25:35.463Z,95512.13
2023-04-15T16:28:27.029Z,95512.38
2023-04-15T16:31:14.589Z,95513.91
2023-04-15T16:34:01.935Z,95513.13
2023-04-15T16:36:49.277Z,95515.75
2023-04-15T16:39:36.600Z,95518.38
2023-04-15T16:42:23.945Z,95525.47
2023-04-15T16:45:11.287Z,95525.72
2023-04-15T16:47:58.636Z,95536.75
2023-04-15T16:50:46.016Z,95533.88
2023-04-15T16:53:33.331Z,95537.56
2023-04-15T16:56:20.644Z,95542.84
2023-04-15T16:59:08.018Z,95543.38
2023-04-15T17:01:55.532Z,95538.13
2023-04-15T17:04:43.256Z,95535.75
2023-04-15T17:07:30.610Z,95543.09
2023-04-15T17:10:17.937Z,95551.22
2023-04-15T17:13:05.232Z,95552.22
2023-04-15T17:15:54.921Z,95557.22
2023-04-15T17:18:42.965Z,95554.38
2023-04-15T17:21:30.311Z,95568.53
2023-04-15T17:24:17.593Z,95568.25
2023-04-15T17:27:04.933Z,95582.19
2023-04-15T17:29:52.244Z,95582.97
2023-04-15T17:32:39.777Z,95587.97
2023-04-15T17:35:27.370Z,95590.31
2023-04-15T17:38:14.671Z,95605.78
2023-04-15T17:41:02.037Z,95598.72
2023-04-15T17:43:49.397Z,95610.25
2023-04-15T17:46:36.783Z,95606.84
2023-04-15T17:49:24.187Z,95606.31
2023-04-15T17:52:11.586Z,95609.19
2023-04-15T17:54:58.927Z,95620.72
2023-04-15T17:57:46.232Z,95616.75
2023-04-15T18:00:33.576Z,95630.13
2023-04-15T18:03:20.976Z,95621.97
2023-04-15T18:06:08.469Z,95630.88
2023-04-15T18:08:55.786Z,95634.53
2023-04-15T18:11:43.118Z,95639.00
2023-04-15T18:14:34.555Z,95637.97
2023-04-15T18:17:22.394Z,95639.00
2023-04-15T18:20:09.720Z,95652.91
2023-04-15T18:22:57.047Z,95658.13
2023-04-15T18:25:44.372Z,95661.03
2023-04-15T18:28:31.696Z,95665.22
2023-04-15T18:31:19.026Z,95670.72
2023-04-15T18:34:06.731Z,95668.91
2023-04-15T18:36:54.210Z,95673.09
2023-04-15T18:39:41.496Z,95690.16
2023-04-15T18:42:28.827Z,95691.97
2023-04-15T18:45:16.120Z,95681.25
2023-04-15T18:48:03.484Z,95690.41
2023-04-15T18:50:50.868Z,95699.84
2023-04-15T18:53:38.220Z,95697.47
2023-04-15T18:56:25.527Z,95711.41
2023-04-15T18:59:28.890Z,95714.25
2023-04-15T19:02:17.846Z,95714.25
2023-04-15T19:05:05.252Z,95717.66
2023-04-15T19:07:52.577Z,95724.75
2023-04-15T19:10:39.948Z,95721.34
2023-04-15T19:13:27.223Z,95731.03
2023-04-15T19:16:14.587Z,95741.78
2023-04-15T19:19:02.004Z,95738.34
2023-04-15T19:21:49.336Z,95734.69
2023-04-15T19:24:36.673Z,95739.94
2023-04-15T19:27:24.002Z,95747.03
2023-04-15T19:30:11.345Z,95745.97
2023-04-15T19:32:58.709Z,95754.63
2023-04-15T19:35:46.122Z,95756.47
2023-04-15T19:38:33.421Z,95761.69
2023-04-15T19:41:20.733Z,95757.50
2023-04-15T19:44:08.085Z,95762.75
2023-04-15T19:46:55.433Z,95763.78
2023-04-15T19:49:42.767Z,95755.91
2023-04-15T19:52:30.096Z,95762.22
2023-04-15T19:55:17.439Z,95766.09
2023-04-15T19:58:04.753Z,95766.91
2023-04-15T20:00:52.076Z,95772.41
2023-04-15T20:03:39.625Z,95768.94
2023-04-15T20:06:27.014Z,95772.63
2023-04-15T20:09:14.309Z,95765.78
2023-04-15T20:12:44.794Z,95771.81
2023-04-15T20:15:08.922Z,95773.91
2023-04-15T20:17:56.314Z,95779.41
2023-04-15T20:20:43.636Z,95783.03
2023-04-15T20:23:31.009Z,95782.75
2023-04-15T20:26:18.316Z,95782.75
2023-04-15T20:29:06.072Z,95787.19
2023-04-15T20:31:53.599Z,95781.94
2023-04-15T20:34:40.936Z,95781.41
2023-04-15T20:37:28.247Z,95778.00
2023-04-15T20:40:15.624Z,95791.09
2023-04-15T20:43:02.949Z,95795.56
2023-04-15T20:45:50.289Z,95796.84
2023-04-15T20:48:37.763Z,95793.41
2023-04-15T20:51:25.085Z,95801.03
2023-04-15T20:54:12.517Z,95803.44
2023-04-15T20:56:59.940Z,95803.44
2023-04-15T20:59:47.261Z,95793.72
2023-04-15T21:02:34.670Z,95808.44
2023-04-15T21:05:22.059Z,95806.84
2023-04-15T21:08:09.422Z,95811.28
2023-04-15T21:10:56.779Z,95817.31
2023-04-15T21:13:44.095Z,95805.28
2023-04-15T21:16:31.390Z,95822.81
2023-04-15T21:19:18.846Z,95828.03
2023-04-15T21:22:06.142Z,95831.72
2023-04-15T21:24:53.472Z,95830.94
2023-04-15T21:27:40.764Z,95840.59
2023-04-15T21:30:28.054Z,95840.28
2023-04-15T21:33:15.349Z,95844.50
2023-04-15T21:36:02.692Z,95843.72
2023-04-15T21:38:50.070Z,95850.78
2023-04-15T21:41:37.376Z,95848.44
2023-04-15T21:44:24.728Z,95846.03
2023-04-15T21:47:12.118Z,95850.50
2023-04-15T21:49:59.611Z,95852.31
2023-04-15T21:52:46.980Z,95853.34
2023-04-15T21:55:34.301Z,95851.75
2023-04-15T21:58:21.662Z,95861.47
2023-04-15T22:01:09.158Z,95870.09
2023-04-15T22:03:56.674Z,95865.91
2023-04-15T22:06:44.143Z,95865.91
2023-04-15T22:09:31.471Z,95869.31
2023-04-15T22:12:18.770Z,95871.16
2023-04-15T22:15:06.073Z,95872.72
2023-04-15T22:17:53.433Z,95873.78
2023-04-15T22:20:40.760Z,95884.25
2023-04-15T22:23:28.128Z,95891.88
2023-04-15T22:26:15.410Z,95886.09
2023-04-15T22:29:02.764Z,95894.75
2023-04-15T22:31:50.373Z,95893.69
2023-04-15T22:34:37.861Z,95890.28
2023-04-15T22:37:25.186Z,95895.53
2023-04-15T22:40:12.489Z,95905.78
2023-04-15T22:42:59.795Z,95902.91
2023-04-15T22:45:47.176Z,95908.94
2023-04-15T22:48:34.494Z,95912.34
2023-04-15T22:51:21.839Z,95913.94
2023-04-15T22:54:09.140Z,95910.50
2023-04-15T22:56:56.462Z,95912.13
2023-04-15T22:59:43.789Z,95906.09
2023-04-15T23:02:31.275Z,95919.97
2023-04-15T23:05:18.812Z,95918.16
2023-04-15T23:08:06.246Z,95922.59
2023-04-15T23:10:53.589Z,95918.16
2023-04-15T23:13:40.892Z,95919.75
2023-04-15T23:16:28.231Z,95923.38
2023-04-15T23:19:15.618Z,95923.38
2023-04-15T23:22:02.954Z,95923.38
2023-04-15T23:24:50.319Z,95919.97
2023-04-15T23:27:37.743Z,95921.81
2023-04-15T23:30:25.093Z,95921.56
2023-04-15T23:33:12.409Z,95926.78
2023-04-15T23:35:59.832Z,95932.03
2023-04-15T23:38:47.152Z,95928.38
2023-04-15T23:41:34.473Z,95923.38
2023-04-15T23:44:21.860Z,95932.03
2023-04-15T23:47:09.301Z,95932.28
2023-04-15T23:49:56.728Z,95933.09
2023-04-15T23:52:44.053Z,95934.91
2023-04-15T23:55:31.367Z,95926.00
2023-04-15T23:58:18.755Z,95927.06
